Time;durP1;ratioP1;P1;durP2;ratioP2;P2;SDS_P1;SDS_P2;PMS_P1;PMS_P2;Temp;Humidity;BMP_temperature;BMP_pressure;BME280_temperature;BME280_humidity;BME280_pressure;Samples;Min_cycle;Max_cycle;Signal;HPM_P1;HPM_P2
2022/05/29 00:01:08;;;;;;;4.35;2.85;;;;;;;18.64;nan;-24335.91;5071647;28;20239;-57
2022/05/29 00:03:34;;;;;;;6.68;3.38;;;;;;;18.16;nan;-24322.66;5071488;28;20185;-59
2022/05/29 00:05:59;;;;;;;4.95;2.78;;;;;;;18.40;nan;-24329.34;5071121;28;21137;-56
2022/05/29 00:08:27;;;;;;;8.48;3.10;;;;;;;18.46;nan;-24331.16;5072415;28;20178;-58
2022/05/29 00:10:54;;;;;;;8.35;2.90;;;;;;;18.53;nan;-24333.13;5070921;28;20711;-55
2022/05/29 00:13:20;;;;;;;6.45;2.90;;;;;;;18.44;nan;-24330.47;5073117;28;20174;-57
2022/05/29 00:15:46;;;;;;;4.03;2.60;;;;;;;18.14;nan;-24322.25;5076576;28;20189;-58
2022/05/29 00:18:12;;;;;;;5.10;2.92;;;;;;;18.59;nan;-24334.63;5074277;28;20568;-56
2022/05/29 00:20:39;;;;;;;6.30;3.05;;;;;;;18.08;nan;-24320.56;5072270;28;20178;-57
2022/05/29 00:23:05;;;;;;;7.97;2.97;;;;;;;18.02;nan;-24319.03;5073504;28;20178;-56
2022/05/29 00:25:31;;;;;;;5.20;3.10;;;;;;;17.94;nan;-24316.66;5070755;28;20196;-58
2022/05/29 00:27:56;;;;;;;5.20;3.00;;;;;;;18.28;nan;-24326.13;5068375;28;20200;-58
2022/05/29 00:30:22;;;;;;;4.95;3.35;;;;;;;17.91;nan;-24315.97;5069519;28;20181;-57
2022/05/29 00:32:47;;;;;;;5.28;2.90;;;;;;;18.18;nan;-24323.22;5073212;28;20202;-58
2022/05/29 00:35:13;;;;;;;4.93;2.70;;;;;;;17.81;nan;-24313.19;5071796;28;20260;-58
2022/05/29 00:37:41;;;;;;;5.05;2.60;;;;;;;18.36;nan;-24328.22;5071090;28;20189;-57
2022/05/29 00:40:26;;;;;;;5.75;3.20;;;;;;;18.29;nan;-24326.41;5070498;28;20303;-58
2022/05/29 00:42:51;;;;;;;6.63;2.42;;;;;;;18.44;nan;-24330.59;5072092;28;20188;-59
2022/05/29 00:45:21;;;;;;;3.05;2.53;;;;;;;18.14;nan;-24322.09;5070682;28;20252;-55
2022/05/29 00:47:47;;;;;;;6.53;3.15;;;;;;;18.19;nan;-24323.63;5068281;28;20193;-57
2022/05/29 00:50:17;;;;;;;4.75;3.03;;;;;;;18.24;nan;-24324.88;5069263;28;20223;-56
2022/05/29 00:52:42;;;;;;;5.72;3.20;;;;;;;18.33;nan;-24327.53;5068363;28;20200;-56
2022/05/29 00:55:17;;;;;;;5.60;2.90;;;;;;;18.17;nan;-24322.94;5069648;28;20621;-59
2022/05/29 00:57:48;;;;;;;5.43;2.90;;;;;;;17.89;nan;-24315.41;5074802;28;20272;-58
2022/05/29 01:00:20;;;;;;;6.25;2.58;;;;;;;17.92;nan;-24316.09;5073936;28;20256;-57
2022/05/29 01:02:46;;;;;;;4.13;2.40;;;;;;;17.82;nan;-24313.47;5071472;28;20228;-57
2022/05/29 01:05:15;;;;;;;4.80;3.10;;;;;;;17.86;nan;-24314.56;5073539;28;20568;-58
2022/05/29 01:07:53;;;;;;;4.93;2.80;;;;;;;17.96;nan;-24317.22;5076040;28;20181;-57
2022/05/29 01:10:19;;;;;;;4.30;2.90;;;;;;;17.95;nan;-24317.09;5076316;28;20185;-60
2022/05/29 01:13:03;;;;;;;3.72;2.70;;;;;;;17.98;nan;-24317.91;5075952;28;20231;-57
2022/05/29 01:15:38;;;;;;;4.80;2.83;;;;;;;18.03;nan;-24319.19;5076253;28;20177;-59
2022/05/29 01:18:20;;;;;;;5.63;3.60;;;;;;;17.90;nan;-24315.69;5078864;28;20258;-57
2022/05/29 01:20:58;;;;;;;6.72;2.97;;;;;;;18.14;nan;-24322.25;5081108;28;20177;-57
2022/05/29 01:24:01;;;;;;;3.40;2.25;;;;;;;18.22;nan;-24324.34;5083740;28;20181;-57
2022/05/29 01:26:57;;;;;;;3.47;2.78;;;;;;;18.12;nan;-24321.69;5082006;28;20181;-58
2022/05/29 01:29:51;;;;;;;4.05;2.60;;;;;;;18.03;nan;-24319.31;5081062;28;20174;-59
2022/05/29 01:32:25;;;;;;;4.18;2.90;;;;;;;18.13;nan;-24321.97;5076821;28;20209;-57
2022/05/29 01:35:02;;;;;;;4.07;2.45;;;;;;;18.24;nan;-24324.88;5078200;28;20675;-58
2022/05/29 01:37:31;;;;;;;9.68;2.63;;;;;;;18.20;nan;-24323.78;5084801;28;20189;-58
2022/05/29 01:40:08;;;;;;;4.35;2.80;;;;;;;18.40;nan;-24329.47;5077795;28;20232;-57
2022/05/29 01:42:42;;;;;;;4.80;2.70;;;;;;;18.40;nan;-24329.47;5084749;28;20256;-59
2022/05/29 01:45:22;;;;;;;4.65;2.75;;;;;;;18.38;nan;-24328.94;5075085;28;20200;-58
2022/05/29 01:48:08;;;;;;;10.00;3.22;;;;;;;18.16;nan;-24322.66;5078628;28;20183;-56
2022/05/29 01:50:56;;;;;;;5.50;3.08;;;;;;;18.25;nan;-24325.31;5080691;28;20182;-59
2022/05/29 01:53:23;;;;;;;4.95;3.00;;;;;;;;;;5080845;28;20264;-58
2022/05/29 01:55:55;;;;;;;4.90;3.20;;;;;;;18.05;nan;-24319.88;5082122;28;20229;-58
2022/05/29 01:58:28;;;;;;;6.07;3.40;;;;;;;18.44;nan;-24330.59;5080185;28;20273;-57
2022/05/29 02:00:59;;;;;;;3.83;2.70;;;;;;;18.25;nan;-24325.16;5076600;28;20274;-59
2022/05/29 02:03:32;;;;;;;6.00;2.83;;;;;;;17.75;nan;-24311.38;5074934;28;20645;-57
2022/05/29 02:06:05;;;;;;;5.30;2.80;;;;;;;17.55;nan;-24306.06;5080748;28;20202;-57
2022/05/29 02:08:41;;;;;;;4.22;2.78;;;;;;;17.65;nan;-24308.72;5083164;28;20181;-57
2022/05/29 02:11:28;;;;;;;4.95;2.38;;;;;;;17.73;nan;-24310.94;5079843;28;20197;-57
2022/05/29 02:14:07;;;;;;;5.65;2.70;;;;;;;17.89;nan;-24315.28;5079263;28;20182;-56
2022/05/29 02:16:53;;;;;;;4.43;2.38;;;;;;;17.88;nan;-24315.00;5073279;28;20192;-57
2022/05/29 02:19:33;;;;;;;7.75;2.53;;;;;;;17.87;nan;-24314.84;5077540;28;20182;-55
2022/05/29 02:22:08;;;;;;;7.05;2.60;;;;;;;17.66;nan;-24309.13;5078890;28;20271;-57
2022/05/29 02:24:39;;;;;;;4.03;2.75;;;;;;;17.82;nan;-24313.31;5083505;28;20178;-57
2022/05/29 02:27:21;;;;;;;7.50;3.08;;;;;;;17.59;nan;-24307.19;5077767;28;20189;-56
2022/05/29 02:29:47;;;;;;;6.07;3.35;;;;;;;17.64;nan;-24308.44;5080609;28;20185;-56
2022/05/29 02:32:19;;;;;;;6.18;2.80;;;;;;;17.66;nan;-24309.13;5078394;28;20211;-59
2022/05/29 02:35:08;;;;;;;7.45;2.78;;;;;;;17.69;nan;-24309.84;5081261;28;20188;-57
2022/05/29 02:37:56;;;;;;;14.20;2.90;;;;;;;17.68;nan;-24309.56;5081978;28;20174;-57
2022/05/29 02:40:28;;;;;;;5.25;2.97;;;;;;;18.03;nan;-24319.19;5073753;28;20192;-56
2022/05/29 02:43:05;;;;;;;4.72;3.00;;;;;;;18.08;nan;-24320.56;5080976;28;20211;-58
2022/05/29 02:46:00;;;;;;;6.68;2.95;;;;;;;18.05;nan;-24319.88;5080133;28;20679;-56
2022/05/29 02:48:29;;;;;;;4.28;2.90;;;;;;;17.90;nan;-24315.53;5073412;28;20186;-58
2022/05/29 02:51:07;;;;;;;5.70;2.90;;;;;;;17.87;nan;-24314.72;5078379;28;20276;-58
2022/05/29 02:53:34;;;;;;;5.40;2.88;;;;;;;17.05;nan;-24292.09;5069185;28;20284;-57
2022/05/29 02:56:04;;;;;;;7.10;2.78;;;;;;;17.98;nan;-24317.78;5075104;28;20734;-56
2022/05/29 02:58:32;;;;;;;4.93;2.85;;;;;;;18.02;nan;-24318.91;5076465;28;20185;-58
2022/05/29 03:01:10;;;;;;;6.25;2.42;;;;;;;17.95;nan;-24316.94;5078299;28;20537;-56
2022/05/29 03:03:35;;;;;;;3.85;2.67;;;;;;;17.93;nan;-24316.38;5075812;28;20371;-58
2022/05/29 03:06:07;;;;;;;3.85;2.50;;;;;;;17.91;nan;-24315.81;5072107;28;20264;-57
2022/05/29 03:09:02;;;;;;;6.60;2.85;;;;;;;17.86;nan;-24314.56;5075541;28;20208;-57
2022/05/29 03:11:42;;;;;;;7.72;2.78;;;;;;;17.85;nan;-24314.16;5077580;28;20243;-57
2022/05/29 03:14:45;;;;;;;6.70;3.03;;;;;;;17.85;nan;-24314.16;5075687;28;20656;-55
2022/05/29 03:17:31;;;;;;;5.25;2.90;;;;;;;17.82;nan;-24313.31;5072577;28;20192;-58
2022/05/29 03:20:22;;;;;;;5.30;2.28;;;;;;;17.92;nan;-24316.09;5075074;28;20687;-57
2022/05/29 03:22:54;;;;;;;5.32;2.40;;;;;;;17.74;nan;-24311.09;5075358;28;20278;-58
2022/05/29 03:25:38;;;;;;;4.22;3.00;;;;;;;17.60;nan;-24307.31;5073147;28;20177;-58
2022/05/29 03:28:11;;;;;;;3.72;2.75;;;;;;;17.51;nan;-24304.94;5076084;28;20213;-58
2022/05/29 03:30:39;;;;;;;3.33;2.53;;;;;;;17.47;nan;-24303.81;5076134;28;20170;-57
2022/05/29 03:33:08;;;;;;;15.93;2.80;;;;;;;17.51;nan;-24304.94;5073528;28;20178;-54
2022/05/29 03:35:41;;;;;;;3.42;2.30;;;;;;;17.27;nan;-24298.09;5073906;28;20234;-57
2022/05/29 03:38:06;;;;;;;4.78;2.50;;;;;;;17.30;nan;-24299.09;5074023;28;20239;-60
2022/05/29 03:40:33;;;;;;;3.72;2.72;;;;;;;17.67;nan;-24309.41;5071387;28;20186;-59
2022/05/29 03:42:59;;;;;;;6.00;3.20;;;;;;;17.77;nan;-24311.91;5072632;28;20323;-57
2022/05/29 03:45:25;;;;;;;5.05;2.60;;;;;;;17.96;nan;-24317.34;5077469;28;20268;-59
2022/05/29 03:47:51;;;;;;;5.93;2.72;;;;;;;18.00;nan;-24318.47;5077120;28;20648;-58
2022/05/29 03:50:18;;;;;;;7.82;2.80;;;;;;;17.92;nan;-24316.25;5075338;28;20181;-57
2022/05/29 03:52:45;;;;;;;7.43;2.90;;;;;;;18.30;nan;-24326.69;5077892;28;20224;-57
2022/05/29 03:55:12;;;;;;;3.60;2.53;;;;;;;17.72;nan;-24310.53;5077830;28;20366;-56
2022/05/29 03:57:38;;;;;;;4.70;2.78;;;;;;;14.65;nan;-24225.78;5074349;28;20741;-57
2022/05/29 04:00:05;;;;;;;4.50;2.80;;;;;;;14.24;nan;-24214.28;5076461;28;20318;-55
2022/05/29 04:02:31;;;;;;;4.35;2.63;;;;;;;15.87;nan;-24259.66;5078068;28;20185;-57
2022/05/29 04:04:56;;;;;;;3.90;2.92;;;;;;;18.27;nan;-24325.72;5078131;28;20182;-57
2022/05/29 04:12:03;;;;;;;6.35;3.30;;;;;;;18.22;nan;-24324.34;5074633;28;20178;-57
2022/05/29 04:12:57;;;;;;;4.97;2.95;;;;;;;18.35;nan;-24328.09;5076939;28;20228;-59
2022/05/29 04:15:22;;;;;;;4.18;2.65;;;;;;;18.58;nan;-24334.22;5077311;28;20223;-58
2022/05/29 04:17:48;;;;;;;5.88;3.00;;;;;;;18.55;nan;-24333.53;5079132;28;20224;-58
2022/05/29 04:20:14;;;;;;;4.78;3.03;;;;;;;18.57;nan;-24334.09;5074088;28;20186;-59
2022/05/29 04:22:39;;;;;;;5.82;3.20;;;;;;;18.96;nan;-24344.81;5079012;28;20185;-58
2022/05/29 04:25:05;;;;;;;4.93;3.03;;;;;;;19.01;nan;-24346.19;5075851;28;20210;-57
2022/05/29 04:27:31;;;;;;;4.93;3.20;;;;;;;18.79;nan;-24340.06;5076637;28;20636;-57
2022/05/29 04:29:56;;;;;;;5.78;3.13;;;;;;;19.18;nan;-24350.94;5075028;28;20218;-58
2022/05/29 04:35:06;;;;;;;7.43;3.45;;;;;;;20.51;nan;-24387.34;5078393;28;20280;-59
2022/05/29 04:37:32;;;;;;;7.93;3.50;;;;;;;22.20;nan;-24433.66;5077607;28;20945;-57
2022/05/29 04:39:58;;;;;;;8.77;3.58;;;;;;;23.21;nan;-24461.44;5078032;28;20181;-61
2022/05/29 04:42:23;;;;;;;5.85;3.00;;;;;;;23.41;nan;-24466.69;5076288;28;20674;-59
2022/05/29 04:44:49;;;;;;;4.50;3.10;;;;;;;23.60;nan;-24471.94;5078642;28;20180;-59
2022/05/29 04:47:15;;;;;;;5.68;3.20;;;;;;;23.56;nan;-24470.97;5074039;28;20266;-57
2022/05/29 04:49:40;;;;;;;4.90;3.45;;;;;;;23.92;nan;-24480.63;5076397;28;20194;-56
2022/05/29 04:52:07;;;;;;;9.30;3.25;;;;;;;23.32;nan;-24464.34;5076600;28;20214;-57
2022/05/29 04:54:34;;;;;;;6.28;3.35;;;;;;;22.95;nan;-24454.25;5074711;28;20339;-61
2022/05/29 04:57:00;;;;;;;12.45;3.80;;;;;;;22.06;nan;-24429.91;5077990;28;20188;-60
2022/05/29 04:59:25;;;;;;;7.18;3.25;;;;;;;21.73;nan;-24420.91;5072550;28;20178;-58
2022/05/29 05:01:52;;;;;;;5.00;3.05;;;;;;;21.51;nan;-24414.94;5077243;28;20261;-58
2022/05/29 05:04:17;;;;;;;4.93;3.00;;;;;;;21.04;nan;-24401.91;5075037;28;20197;-60
2022/05/29 05:06:43;;;;;;;6.90;3.55;;;;;;;20.85;nan;-24396.78;5077015;28;20186;-57
2022/05/29 05:09:08;;;;;;;5.78;3.50;;;;;;;20.98;nan;-24400.38;5074286;28;20229;-60
2022/05/29 05:11:34;;;;;;;7.50;3.85;;;;;;;20.76;nan;-24394.16;5077091;28;20294;-57
2022/05/29 05:13:59;;;;;;;7.28;3.42;;;;;;;20.81;nan;-24395.66;5074125;28;20205;-56
2022/05/29 05:16:25;;;;;;;5.53;3.60;;;;;;;21.21;nan;-24406.50;5071567;28;20695;-58
2022/05/29 05:18:50;;;;;;;9.93;3.45;;;;;;;21.30;nan;-24409.13;5071374;28;20182;-58
2022/05/29 05:21:16;;;;;;;5.05;3.42;;;;;;;21.13;nan;-24404.56;5075702;28;20169;-59
2022/05/29 05:23:41;;;;;;;5.72;3.72;;;;;;;21.55;nan;-24416.06;5072618;28;20182;-56
2022/05/29 05:26:13;;;;;;;7.78;3.30;;;;;;;21.43;nan;-24412.59;5075055;28;20239;-56
2022/05/29 05:28:38;;;;;;;4.40;3.38;;;;;;;21.09;nan;-24403.44;5074358;28;20187;-58
2022/05/29 05:31:04;;;;;;;11.07;3.55;;;;;;;20.73;nan;-24393.59;5074375;28;20198;-57
2022/05/29 05:33:29;;;;;;;9.57;3.63;;;;;;;21.31;nan;-24409.28;5074726;28;20174;-58
2022/05/29 05:35:56;;;;;;;4.45;3.20;;;;;;;21.60;nan;-24417.44;5071534;28;20196;-58
2022/05/29 05:38:21;;;;;;;5.75;3.50;;;;;;;22.40;nan;-24439.31;5073179;28;20331;-59
2022/05/29 05:40:47;;;;;;;4.40;3.33;;;;;;;22.56;nan;-24443.59;5071483;28;20693;-59
2022/05/29 05:43:12;;;;;;;5.82;3.00;;;;;;;22.56;nan;-24443.59;5075737;28;20178;-59
2022/05/29 05:45:41;;;;;;;7.68;3.97;;;;;;;22.55;nan;-24443.19;5070979;28;20569;-59
2022/05/29 05:48:08;;;;;;;6.63;3.55;;;;;;;20.35;nan;-24382.91;5069155;28;20196;-57
2022/05/29 05:50:33;;;;;;;7.85;3.67;;;;;;;22.06;nan;-24429.78;5070678;28;20566;-58
2022/05/29 05:52:59;;;;;;;7.03;3.33;;;;;;;21.97;nan;-24427.56;5074276;28;20201;-60
2022/05/29 05:55:25;;;;;;;6.25;3.60;;;;;;;19.58;nan;-24361.78;5075979;28;20324;-58
2022/05/29 05:57:53;;;;;;;5.82;3.25;;;;;;;21.48;nan;-24413.97;5075413;28;20205;-60
2022/05/29 06:00:19;;;;;;;4.13;2.80;;;;;;;21.74;nan;-24421.19;5072840;28;20177;-56
2022/05/29 06:02:45;;;;;;;4.38;3.00;;;;;;;21.65;nan;-24418.69;5076195;28;20196;-57
2022/05/29 06:05:12;;;;;;;8.18;2.97;;;;;;;21.83;nan;-24423.69;5081201;28;20592;-57
2022/05/29 06:07:37;;;;;;;5.53;2.95;;;;;;;21.73;nan;-24420.78;5079787;28;20568;-59
2022/05/29 06:10:04;;;;;;;5.45;3.45;;;;;;;22.02;nan;-24428.81;5077354;28;20661;-60
2022/05/29 06:12:29;;;;;;;5.53;3.08;;;;;;;21.97;nan;-24427.41;5073670;28;20288;-58
2022/05/29 06:14:57;;;;;;;5.35;3.47;;;;;;;21.90;nan;-24425.63;5077548;28;21048;-60
2022/05/29 06:17:22;;;;;;;6.60;2.92;;;;;;;21.69;nan;-24419.78;5078741;28;20239;-58
2022/05/29 06:19:48;;;;;;;5.82;3.30;;;;;;;21.92;nan;-24426.16;5077083;28;20640;-58
2022/05/29 06:22:13;;;;;;;5.43;3.35;;;;;;;22.05;nan;-24429.50;5075835;28;20177;-55
2022/05/29 06:24:39;;;;;;;5.53;3.28;;;;;;;21.22;nan;-24406.91;5076988;28;20174;-57
2022/05/29 06:27:05;;;;;;;6.25;3.40;;;;;;;21.52;nan;-24415.22;5078246;28;20184;-57
2022/05/29 06:29:30;;;;;;;7.35;3.08;;;;;;;21.54;nan;-24415.66;5079242;28;20683;-57
2022/05/29 06:32:08;;;;;;;7.10;3.17;;;;;;;21.13;nan;-24404.56;5076682;28;20208;-59
2022/05/29 06:34:35;;;;;;;5.40;3.60;;;;;;;21.47;nan;-24413.84;5079255;28;20629;-59
2022/05/29 06:37:08;;;;;;;7.00;3.30;;;;;;;21.43;nan;-24412.59;5078793;28;20185;-57
2022/05/29 06:39:37;;;;;;;6.97;3.22;;;;;;;21.46;nan;-24413.56;5078059;28;20189;-58
2022/05/29 06:42:03;;;;;;;5.40;2.97;;;;;;;21.73;nan;-24420.91;5077152;28;20178;-58
2022/05/29 06:44:29;;;;;;;7.80;3.08;;;;;;;21.79;nan;-24422.56;5075657;28;20189;-58
2022/05/29 06:46:54;;;;;;;4.63;2.75;;;;;;;21.81;nan;-24423.13;5075355;28;20193;-57
2022/05/29 06:49:20;;;;;;;5.80;3.20;;;;;;;21.91;nan;-24425.91;5074983;28;20559;-58
2022/05/29 06:51:45;;;;;;;6.70;3.30;;;;;;;22.11;nan;-24431.16;5076117;28;20250;-58
2022/05/29 06:54:10;;;;;;;5.05;3.45;;;;;;;22.43;nan;-24440.00;5077049;28;20264;-55
2022/05/29 06:56:36;;;;;;;5.25;3.13;;;;;;;22.30;nan;-24436.56;5076701;28;20571;-56
2022/05/29 06:59:05;;;;;;;6.32;3.08;;;;;;;22.30;nan;-24436.41;5074814;28;20216;-57
2022/05/29 07:07:12;;;;;;;5.45;3.17;;;;;;;22.79;nan;-24449.84;5076392;28;20189;-57
2022/05/29 07:09:41;;;;;;;5.82;3.33;;;;;;;22.87;nan;-24452.19;5075578;28;20205;-57
2022/05/29 07:12:15;;;;;;;9.40;3.10;;;;;;;22.82;nan;-24450.81;5077297;28;20301;-56
2022/05/29 07:14:45;;;;;;;4.35;3.25;;;;;;;22.20;nan;-24433.66;5073232;28;20192;-57
2022/05/29 07:17:11;;;;;;;4.40;3.17;;;;;;;22.90;nan;-24453.00;5074303;28;20193;-56
2022/05/29 07:19:37;;;;;;;4.18;2.95;;;;;;;22.86;nan;-24451.78;5055055;28;20177;-57
2022/05/29 07:22:03;;;;;;;4.40;2.92;;;;;;;22.99;nan;-24455.38;5073548;28;20775;-59
2022/05/29 07:24:32;;;;;;;5.18;3.08;;;;;;;22.36;nan;-24438.22;5075195;28;20200;-58
2022/05/29 07:26:57;;;;;;;5.53;3.47;;;;;;;22.28;nan;-24436.00;5075024;28;20578;-57
2022/05/29 07:29:24;;;;;;;5.97;3.17;;;;;;;22.01;nan;-24428.53;5079005;28;20173;-57
2022/05/29 07:31:51;;;;;;;7.75;3.30;;;;;;;22.06;nan;-24429.91;5075685;28;20729;-58
2022/05/29 07:34:17;;;;;;;6.45;3.22;;;;;;;22.37;nan;-24438.50;5074904;28;21429;-58
2022/05/29 07:36:42;;;;;;;11.25;3.30;;;;;;;22.76;nan;-24449.16;5075500;28;20169;-58
2022/05/29 07:39:09;;;;;;;5.97;3.65;;;;;;;22.58;nan;-24444.03;5078652;28;20268;-57
2022/05/29 07:44:18;;;;;;;9.98;2.85;;;;;;;22.93;nan;-24453.72;5077278;28;21178;-58
2022/05/29 07:46:44;;;;;;;4.90;3.30;;;;;;;22.77;nan;-24449.41;5080010;28;20181;-58
2022/05/29 07:49:10;;;;;;;4.82;3.00;;;;;;;23.07;nan;-24457.56;5075776;28;20170;-59
2022/05/29 07:51:35;;;;;;;5.45;3.13;;;;;;;23.49;nan;-24468.91;5077507;28;20293;-59
2022/05/29 07:54:01;;;;;;;7.85;3.65;;;;;;;23.33;nan;-24464.75;5086529;28;20277;-58
2022/05/29 07:56:27;;;;;;;4.78;3.03;;;;;;;22.96;nan;-24454.41;5074059;28;20300;-58
2022/05/29 07:58:52;;;;;;;5.68;3.10;;;;;;;23.52;nan;-24469.72;5074168;28;20296;-58
2022/05/29 08:01:19;;;;;;;6.18;3.13;;;;;;;23.22;nan;-24461.56;5075699;28;20203;-60
2022/05/29 08:03:45;;;;;;;5.88;3.38;;;;;;;23.32;nan;-24464.34;5074898;28;20181;-61
2022/05/29 08:06:11;;;;;;;5.05;2.90;;;;;;;23.38;nan;-24465.88;5076204;28;20628;-57
2022/05/29 08:08:37;;;;;;;9.00;3.35;;;;;;;23.48;nan;-24468.63;5075445;28;20178;-58
2022/05/29 08:11:03;;;;;;;4.80;3.28;;;;;;;22.26;nan;-24435.31;5066491;28;20579;-61
2022/05/29 08:13:31;;;;;;;7.75;4.05;;;;;;;23.33;nan;-24464.63;5074053;28;20269;-59
2022/05/29 08:15:56;;;;;;;8.68;3.22;;;;;;;23.14;nan;-24459.50;5073020;28;20258;-57
2022/05/29 08:18:22;;;;;;;5.55;3.80;;;;;;;23.29;nan;-24463.66;5071656;28;20181;-58
2022/05/29 08:20:48;;;;;;;9.30;3.47;;;;;;;23.38;nan;-24465.88;5072129;28;20169;-60
2022/05/29 08:23:14;;;;;;;7.38;3.67;;;;;;;23.39;nan;-24466.13;5072008;28;20188;-57
2022/05/29 08:31:07;;;;;;;8.45;3.78;;;;;;;23.27;nan;-24462.97;5077607;28;20184;-59
2022/05/29 08:33:35;;;;;;;6.55;3.58;;;;;;;23.35;nan;-24465.31;5074450;28;20255;-60
2022/05/29 08:36:03;;;;;;;6.78;3.42;;;;;;;23.89;nan;-24479.94;5075199;28;20194;-59
2022/05/29 08:38:30;;;;;;;8.50;3.30;;;;;;;23.62;nan;-24472.63;5071549;28;20552;-60
2022/05/29 08:41:02;;;;;;;6.75;3.78;;;;;;;23.68;nan;-24474.16;5076789;28;20177;-58
2022/05/29 08:44:00;;;;;;;5.13;3.17;;;;;;;24.23;nan;-24489.06;5071138;28;20648;-58
2022/05/29 08:46:38;;;;;;;12.68;3.92;;;;;;;24.17;nan;-24487.53;5032433;28;20193;-59
2022/05/29 08:49:04;;;;;;;4.65;3.33;;;;;;;24.22;nan;-24488.91;5075384;28;20200;-59
2022/05/29 08:51:30;;;;;;;8.70;3.42;;;;;;;24.87;nan;-24506.69;5071176;28;20200;-58
2022/05/29 08:54:16;;;;;;;7.28;3.55;;;;;;;24.88;nan;-24506.81;5072602;28;20192;-58
2022/05/29 08:56:57;;;;;;;4.90;3.25;;;;;;;25.25;nan;-24516.88;5068183;28;20186;-59
2022/05/29 08:59:43;;;;;;;6.65;3.15;;;;;;;25.10;nan;-24512.88;5073665;28;20180;-57
2022/05/29 09:02:45;;;;;;;7.55;3.78;;;;;;;25.46;nan;-24522.78;5059398;28;20217;-58
2022/05/29 09:05:20;;;;;;;6.50;3.53;;;;;;;25.33;nan;-24519.22;5076291;28;20185;-58
2022/05/29 09:07:49;;;;;;;7.40;3.40;;;;;;;25.22;nan;-24516.19;5071354;28;20173;-57
2022/05/29 09:10:20;;;;;;;7.45;2.90;;;;;;;25.29;nan;-24518.13;5072711;28;20239;-59
2022/05/29 09:12:57;;;;;;;5.88;2.90;;;;;;;25.41;nan;-24521.41;5076376;28;20209;-58
2022/05/29 09:15:25;;;;;;;5.45;2.85;;;;;;;25.44;nan;-24522.09;5076994;28;20181;-59
2022/05/29 09:17:55;;;;;;;6.93;2.53;;;;;;;25.39;nan;-24520.88;5074565;28;20229;-58
2022/05/29 09:20:59;;;;;;;5.60;2.40;;;;;;;25.58;nan;-24525.97;5071147;28;20194;-58
2022/05/29 09:23:29;;;;;;;4.85;2.80;;;;;;;25.74;nan;-24530.22;5028180;28;20190;-60
2022/05/29 09:25:56;;;;;;;5.78;2.45;;;;;;;24.94;nan;-24508.63;5072207;28;20603;-58
2022/05/29 09:28:41;;;;;;;4.05;2.45;;;;;;;24.81;nan;-24504.91;5075344;28;20174;-58
2022/05/29 09:31:10;;;;;;;5.35;3.15;;;;;;;24.44;nan;-24494.97;5074847;28;20176;-58
2022/05/29 09:33:38;;;;;;;6.25;2.60;;;;;;;24.67;nan;-24501.03;5075340;28;20189;-58
2022/05/29 09:36:20;;;;;;;4.10;2.22;;;;;;;24.63;nan;-24500.22;5075079;28;20193;-57
2022/05/29 09:38:48;;;;;;;4.97;2.65;;;;;;;;;;5074607;28;20539;-57
2022/05/29 09:41:43;;;;;;;4.88;2.80;;;;;;;25.12;nan;-24513.31;5074584;28;20587;-57
2022/05/29 09:44:20;;;;;;;3.20;2.47;;;;;;;25.35;nan;-24519.78;5074124;28;20677;-58
2022/05/29 09:46:50;;;;;;;4.00;2.55;;;;;;;25.47;nan;-24522.94;5079153;28;20181;-58
2022/05/29 09:49:42;;;;;;;4.47;2.47;;;;;;;25.50;nan;-24523.91;5079875;28;20186;-57
2022/05/29 09:52:24;;;;;;;5.35;2.92;;;;;;;25.59;nan;-24526.09;5074657;28;20271;-58
2022/05/29 09:54:55;;;;;;;5.32;3.35;;;;;;;25.54;nan;-24524.88;5074602;28;20274;-59
2022/05/29 09:57:25;;;;;;;3.83;2.88;;;;;;;25.37;nan;-24520.31;5074904;28;20181;-58
2022/05/29 09:59:59;;;;;;;5.28;3.20;;;;;;;25.50;nan;-24523.75;5074948;28;20173;-60
2022/05/29 10:02:26;;;;;;;4.72;2.83;;;;;;;25.78;nan;-24531.31;5074697;28;20176;-59
2022/05/29 10:04:55;;;;;;;4.70;3.10;;;;;;;26.04;nan;-24538.47;5074425;28;20560;-58
2022/05/29 10:07:42;;;;;;;3.45;2.58;;;;;;;26.19;nan;-24542.59;5074624;28;20182;-57
2022/05/29 10:10:11;;;;;;;4.13;2.25;;;;;;;26.44;nan;-24549.34;5074853;28;20158;-58
2022/05/29 10:12:46;;;;;;;4.97;3.40;;;;;;;26.43;nan;-24549.06;5074397;28;20308;-58
2022/05/29 10:15:25;;;;;;;8.15;3.05;;;;;;;26.64;nan;-24554.69;5074503;28;20647;-58
2022/05/29 10:17:55;;;;;;;8.00;3.13;;;;;;;26.56;nan;-24552.47;5074304;28;20178;-59
2022/05/29 10:20:36;;;;;;;7.97;3.22;;;;;;;26.73;nan;-24557.16;5074441;28;20188;-59
2022/05/29 10:23:24;;;;;;;5.70;3.00;;;;;;;26.65;nan;-24554.97;5074095;28;20239;-57
2022/05/29 10:26:03;;;;;;;5.70;3.20;;;;;;;26.86;nan;-24560.72;5073926;28;20163;-58
2022/05/29 10:28:35;;;;;;;7.97;3.50;;;;;;;26.94;nan;-24562.78;5073212;28;20174;-60
2022/05/29 10:31:06;;;;;;;6.18;3.22;;;;;;;26.67;nan;-24555.50;5077643;28;20181;-60
2022/05/29 10:33:34;;;;;;;5.40;3.03;;;;;;;27.09;nan;-24567.03;5076170;28;20186;-60
2022/05/29 10:36:15;;;;;;;5.43;3.42;;;;;;;27.14;nan;-24568.28;5073518;28;20709;-57
2022/05/29 10:38:41;;;;;;;3.92;3.17;;;;;;;27.25;nan;-24571.41;5069940;28;20575;-60
2022/05/29 10:41:08;;;;;;;5.60;3.70;;;;;;;27.36;nan;-24574.31;5076300;28;20267;-63
2022/05/29 10:43:44;;;;;;;5.05;3.38;;;;;;;27.02;nan;-24564.97;5073474;28;20323;-62
2022/05/29 10:46:12;;;;;;;7.22;3.90;;;;;;;27.32;nan;-24573.06;5076446;28;20177;-61
2022/05/29 10:48:43;;;;;;;5.68;4.10;;;;;;;27.24;nan;-24571.16;5078180;28;20645;-60
2022/05/29 10:51:21;;;;;;;6.28;3.92;;;;;;;27.05;nan;-24565.94;5075110;28;20335;-58
2022/05/29 10:54:12;;;;;;;6.50;3.58;;;;;;;27.05;nan;-24565.81;5076035;28;20192;-59
2022/05/29 10:56:49;;;;;;;10.23;3.83;;;;;;;27.07;nan;-24566.47;5076288;28;20279;-61
2022/05/29 10:59:46;;;;;;;6.22;3.60;;;;;;;26.57;nan;-24552.75;5069799;28;20180;-58
2022/05/29 11:05:34;;;;;;;5.07;3.35;;;;;;;26.72;nan;-24557.03;5073091;28;20229;-59
2022/05/29 11:08:18;;;;;;;5.85;3.45;;;;;;;26.73;nan;-24557.28;5061016;28;20728;-58
2022/05/29 11:10:54;;;;;;;8.90;3.80;;;;;;;26.72;nan;-24557.03;5076117;28;20178;-59
2022/05/29 11:13:38;;;;;;;5.40;3.47;;;;;;;27.11;nan;-24567.44;5076030;28;20297;-61
2022/05/29 11:16:27;;;;;;;6.65;3.80;;;;;;;26.88;nan;-24561.28;5075243;28;20235;-60
2022/05/29 11:19:18;;;;;;;4.85;3.17;;;;;;;26.88;nan;-24561.13;5070448;28;20568;-61
2022/05/29 11:22:02;;;;;;;6.35;3.53;;;;;;;26.56;nan;-24552.47;5070612;28;20197;-59
2022/05/29 11:24:49;;;;;;;6.65;3.47;;;;;;;26.87;nan;-24561.00;5077076;28;20205;-61
2022/05/29 11:27:20;;;;;;;6.22;3.60;;;;;;;27.08;nan;-24566.63;5076638;28;20589;-59
2022/05/29 11:30:02;;;;;;;8.85;3.75;;;;;;;27.31;nan;-24572.94;5075894;28;20330;-59
2022/05/29 11:32:54;;;;;;;6.32;3.67;;;;;;;27.18;nan;-24569.38;5071797;28;20238;-58
2022/05/29 11:35:51;;;;;;;4.78;3.30;;;;;;;27.57;nan;-24579.91;5077273;28;20181;-59
2022/05/29 11:38:56;;;;;;;7.47;3.67;;;;;;;27.58;nan;-24580.34;5076357;28;20956;-62
2022/05/29 11:41:34;;;;;;;5.20;3.45;;;;;;;27.71;nan;-24583.75;5077754;28;20186;-59
2022/05/29 11:44:12;;;;;;;4.88;3.55;;;;;;;27.48;nan;-24577.59;5074315;28;20645;-60
2022/05/29 11:53:00;;;;;;;5.28;3.38;;;;;;;27.43;nan;-24576.22;5078314;28;20281;-58
2022/05/29 11:55:33;;;;;;;5.38;3.10;;;;;;;27.43;nan;-24576.22;5070378;28;20221;-60
2022/05/29 11:58:12;;;;;;;6.28;3.85;;;;;;;27.38;nan;-24574.72;5075323;28;20185;-60
2022/05/29 12:00:57;;;;;;;7.25;3.53;;;;;;;27.28;nan;-24571.97;5079274;28;20302;-60
2022/05/29 12:03:36;;;;;;;5.68;3.60;;;;;;;27.42;nan;-24575.81;5075337;28;20678;-58
2022/05/29 12:06:13;;;;;;;13.57;4.32;;;;;;;26.17;nan;-24542.03;5078063;28;20185;-62
2022/05/29 12:09:07;;;;;;;7.15;3.85;;;;;;;27.88;nan;-24588.41;5069756;28;20193;-58
2022/05/29 12:11:59;;;;;;;5.40;3.80;;;;;;;28.11;nan;-24594.59;5075196;28;20199;-58
2022/05/29 12:14:26;;;;;;;8.82;4.00;;;;;;;28.10;nan;-24594.44;5074853;28;20519;-60
2022/05/29 12:17:12;;;;;;;5.57;3.63;;;;;;;28.30;nan;-24599.66;5072137;28;20174;-59
2022/05/29 12:19:45;;;;;;;5.70;3.53;;;;;;;28.25;nan;-24598.41;5074231;28;20185;-60
2022/05/29 12:22:16;;;;;;;6.18;3.70;;;;;;;28.26;nan;-24598.69;5073527;28;20246;-60
2022/05/29 12:24:46;;;;;;;5.78;3.78;;;;;;;28.23;nan;-24597.72;5075196;28;20987;-59
2022/05/29 12:27:20;;;;;;;5.93;3.42;;;;;;;28.24;nan;-24598.13;5074830;28;20174;-61
2022/05/29 12:30:01;;;;;;;7.40;3.83;;;;;;;27.65;nan;-24582.13;5073569;28;20192;-58
2022/05/29 12:32:32;;;;;;;7.30;3.92;;;;;;;27.65;nan;-24582.25;5075974;28;20340;-57
2022/05/29 12:34:58;;;;;;;6.80;3.85;;;;;;;28.22;nan;-24597.44;5074759;28;20189;-58